Time;durP1;ratioP1;P1;durP2;ratioP2;P2;SDS_P1;SDS_P2;PMS_P1;PMS_P2;Temp;Humidity;BMP_temperature;BMP_pressure;BME280_temperature;BME280_humidity;BME280_pressure;Samples;Min_cycle;Max_cycle;Signal;HPM_P1;HPM_P2
2022/03/23 00:00:39;;;;;;;0.80;0.80;;;;;;;17.98;54.26;100116.00;2090407;28;19920;-54
2022/03/23 00:01:40;;;;;;;0.90;0.75;;;;;;;18.01;54.12;100113.00;2090608;28;20086;-54
2022/03/23 00:02:42;;;;;;;;;;;;;;;17.93;54.37;100115.66;2091887;28;20122;-53
2022/03/23 00:03:43;;;;;;;0.80;0.80;;;;;;;17.95;54.29;100112.81;2088996;28;19921;-54
2022/03/23 00:04:45;;;;;;;0.75;0.75;;;;;;;17.99;54.19;100115.00;2087661;28;20063;-53
2022/03/23 00:05:47;;;;;;;1.00;0.82;;;;;;;18.02;53.97;100109.28;2089773;28;20063;-52
2022/03/23 00:06:49;;;;;;;1.52;0.95;;;;;;;18.02;53.95;100108.47;2091081;28;20056;-53
2022/03/23 00:07:49;;;;;;;0.77;0.75;;;;;;;18.02;54.09;100113.81;2090550;28;20055;-52
2022/03/23 00:08:51;;;;;;;;;;;;;;;17.91;54.27;100112.28;2093467;28;20110;-52
2022/03/23 00:09:52;;;;;;;0.65;0.65;;;;;;;17.96;54.29;100115.31;2092787;28;19928;-54
2022/03/23 00:10:53;;;;;;;;;;;;;;;17.87;54.48;100110.94;2089310;28;20040;-55
2022/03/23 00:11:54;;;;;;;1.10;1.00;;;;;;;17.92;54.23;100108.63;2090391;28;20011;-55
2022/03/23 00:12:57;;;;;;;;;;;;;;;17.83;54.52;100113.13;2083448;28;20648;-53
2022/03/23 00:13:58;;;;;;;1.58;0.80;;;;;;;17.89;54.33;100110.78;2087700;28;19927;-56
2022/03/23 00:14:59;;;;;;;;;;;;;;;17.81;54.36;100107.06;2091149;28;20127;-53
2022/03/23 00:16:00;;;;;;;1.50;0.90;;;;;;;17.86;54.50;100110.09;2092049;28;19924;-54
2022/03/23 00:17:03;;;;;;;;;;;;;;;17.80;54.49;100110.75;2090171;28;20040;-52
2022/03/23 00:18:04;;;;;;;1.17;0.70;;;;;;;17.85;54.33;100108.41;2091739;28;20310;-53
2022/03/23 00:19:07;;;;;;;;;;;;;;;17.80;54.42;100107.22;2090705;28;20120;-52
2022/03/23 00:20:09;;;;;;;1.23;0.70;;;;;;;17.84;54.20;100109.41;2090914;28;19929;-55
2022/03/23 00:21:12;;;;;;;1.85;1.27;;;;;;;17.89;54.12;100105.44;2090559;28;21141;-55
2022/03/23 00:22:13;;;;;;;0.88;0.65;;;;;;;17.91;54.10;100106.91;2090866;28;20112;-55
2022/03/23 00:23:15;;;;;;;;;;;;;;;17.81;54.37;100106.22;2091715;28;21894;-55
2022/03/23 00:24:15;;;;;;;1.27;0.85;;;;;;;17.84;54.22;100109.41;2092230;28;19921;-57
2022/03/23 00:25:17;;;;;;;;;;;;;;;17.76;54.45;100108.53;2090053;28;20517;-55
2022/03/23 00:26:18;;;;;;;1.17;0.85;;;;;;;17.81;54.29;100106.22;2087831;28;19928;-53
2022/03/23 00:27:19;;;;;;;;;;;;;;;17.72;54.43;100108.00;2092174;28;20128;-53
2022/03/23 00:28:20;;;;;;;2.65;1.27;;;;;;;17.79;54.45;100108.22;2091287;28;19927;-53
2022/03/23 00:29:22;;;;;;;;;;;;;;;17.70;54.50;100109.19;2089643;28;20069;-55
2022/03/23 00:30:23;;;;;;;;;;;;;;;17.65;54.76;100107.81;2089275;28;21935;-54
2022/03/23 00:31:25;;;;;;;;;;;;;;;17.61;54.67;100106.47;2092349;28;20065;-55
2022/03/23 00:32:26;;;;;;;1.10;0.80;;;;;;;17.70;54.46;100098.44;2088889;28;19924;-54
2022/03/23 00:33:27;;;;;;;;;;;;;;;17.64;54.62;100106.13;2091567;28;20094;-53
2022/03/23 00:34:28;;;;;;;;;;;;;;;17.62;54.87;100108.13;2090686;28;19931;-54
2022/03/23 00:35:30;;;;;;;0.88;0.77;;;;;;;17.68;54.82;100105.81;2089535;28;19963;-55
2022/03/23 00:36:32;;;;;;;0.90;0.90;;;;;;;17.74;54.36;100105.16;2090651;28;20052;-53
2022/03/23 00:37:34;;;;;;;0.98;0.90;;;;;;;17.78;54.43;100107.38;2089464;28;20064;-54
2022/03/23 00:38:35;;;;;;;1.52;0.60;;;;;;;17.79;54.30;100102.84;2090764;28;20872;-53
2022/03/23 00:39:36;;;;;;;;;;;;;;;17.70;54.39;100109.19;2091511;28;20048;-54
2022/03/23 00:40:38;;;;;;;;;;;;;;;17.62;54.44;100102.75;2091919;28;20353;-55
2022/03/23 00:41:39;;;;;;;;;;;;;;;17.58;54.79;100111.31;2090796;28;19956;-54
2022/03/23 00:42:40;;;;;;;1.80;0.70;;;;;;;17.65;54.47;100102.44;2088433;28;20528;-55
2022/03/23 00:43:42;;;;;;;;;;;;;;;17.60;54.55;100103.94;2091757;28;20079;-54
2022/03/23 00:44:44;;;;;;;;;;;;;;;17.55;54.94;100103.56;2090781;28;19920;-53
2022/03/23 00:45:45;;;;;;;1.00;0.90;;;;;;;17.63;54.62;100109.84;2091319;28;20005;-54
2022/03/23 00:46:46;;;;;;;;;;;;;;;17.58;54.72;100105.94;2089060;28;20855;-54
2022/03/23 00:47:48;;;;;;;1.30;0.88;;;;;;;17.64;54.67;100105.31;2091407;28;20011;-54
2022/03/23 00:48:50;;;;;;;1.15;0.90;;;;;;;17.70;54.58;100110.00;2087634;28;20044;-52
2022/03/23 00:49:51;;;;;;;0.80;0.75;;;;;;;17.73;54.26;100108.84;2080953;28;20053;-55
2022/03/23 00:50:52;;;;;;;;;;;;;;;17.62;54.32;100107.28;2088084;28;20072;-53
2022/03/23 00:51:56;;;;;;;0.95;0.77;;;;;;;17.66;54.37;100103.28;2082980;28;20366;-54
2022/03/23 00:52:58;;;;;;;0.50;0.50;;;;;;;17.70;54.28;100107.31;2084990;28;20574;-53
2022/03/23 00:53:58;;;;;;;0.70;0.70;;;;;;;17.73;54.35;100106.16;2087871;28;20048;-53
2022/03/23 00:55:00;;;;;;;;;;;;;;;17.61;54.49;100106.47;2081429;28;20479;-54
2022/03/23 00:56:01;;;;;;;1.00;0.85;;;;;;;17.65;54.33;100109.66;2084967;28;19947;-54
2022/03/23 00:57:02;;;;;;;;;;;;;;;17.55;54.48;100109.78;2082524;28;20045;-54
2022/03/23 00:58:03;;;;;;;;;;;;;;;17.49;54.83;100110.41;2082219;28;19925;-54
2022/03/23 00:59:07;;;;;;;1.40;1.10;;;;;;;17.56;54.65;100107.94;2082048;28;20120;-56
2022/03/23 01:00:12;;;;;;;0.77;0.75;;;;;;;17.60;54.48;100102.06;2080282;28;20049;-53
2022/03/23 01:01:14;;;;;;;1.17;0.88;;;;;;;17.65;54.25;100104.28;2081451;28;20041;-53
2022/03/23 01:02:16;;;;;;;1.92;0.63;;;;;;;17.65;54.25;100102.44;2083223;28;20053;-54
2022/03/23 01:03:17;;;;;;;0.57;0.57;;;;;;;17.69;54.18;100102.09;2078592;28;20055;-54
2022/03/23 01:04:18;;;;;;;0.75;0.75;;;;;;;17.68;54.13;100103.97;2083026;28;20044;-54
2022/03/23 01:05:20;;;;;;;;;;;;;;;17.58;54.41;100097.91;2083281;28;20730;-55
2022/03/23 01:06:20;;;;;;;;;;;;;;;17.49;54.66;100104.22;2082432;28;20593;-53
2022/03/23 01:07:23;;;;;;;0.93;0.80;;;;;;;17.55;54.56;100100.88;2081057;28;19936;-53
2022/03/23 01:08:24;;;;;;;0.70;0.70;;;;;;;17.59;54.46;100103.09;2082506;28;20060;-53
2022/03/23 01:09:26;;;;;;;;;;;;;;;17.51;54.61;100096.84;2083244;28;20048;-53
2022/03/23 01:10:27;;;;;;;1.20;0.88;;;;;;;17.54;54.44;100094.69;2083754;28;20513;-55
2022/03/23 01:11:28;;;;;;;;;;;;;;;17.47;54.56;100093.66;2084297;28;20069;-53
2022/03/23 01:12:29;;;;;;;0.50;0.50;;;;;;;17.52;54.60;100094.00;2084348;28;19928;-54
2022/03/23 01:13:31;;;;;;;;;;;;;;;17.47;54.76;100098.16;2083989;28;20045;-53
2022/03/23 01:14:32;;;;;;;0.68;0.68;;;;;;;17.52;54.52;100088.63;2082132;28;19928;-52
2022/03/23 01:15:33;;;;;;;;;;;;;;;17.45;54.69;100095.66;2079544;28;20055;-54
2022/03/23 01:16:34;;;;;;;;;;;;;;;17.39;54.96;100091.78;2083005;28;19924;-55
2022/03/23 01:17:36;;;;;;;0.83;0.60;;;;;;;17.46;54.84;100088.44;2082582;28;19967;-53
2022/03/23 01:18:37;;;;;;;1.00;0.82;;;;;;;17.52;54.63;100090.47;2082359;28;20049;-54
2022/03/23 01:19:39;;;;;;;;;;;;;;;17.45;54.70;100087.59;2082367;28;20063;-53
2022/03/23 01:20:39;;;;;;;;;;;;;;;17.37;54.77;100083.03;2080714;28;19925;-52
2022/03/23 01:21:41;;;;;;;1.00;0.90;;;;;;;17.45;54.54;100084.94;2082619;28;19928;-54
2022/03/23 01:22:44;;;;;;;0.93;0.73;;;;;;;17.50;54.57;100079.91;2083262;28;20041;-54
2022/03/23 01:23:46;;;;;;;1.20;0.70;;;;;;;17.52;54.55;100080.56;2081652;28;20392;-54
2022/03/23 01:24:47;;;;;;;1.45;0.70;;;;;;;17.57;54.40;100080.09;2081990;28;20132;-53
2022/03/23 01:25:48;;;;;;;;;;;;;;;17.46;54.52;100080.41;2079402;28;20049;-59
2022/03/23 01:26:49;;;;;;;0.68;0.68;;;;;;;17.49;54.53;100077.38;2084125;28;20275;-52
2022/03/23 01:27:51;;;;;;;;;;;;;;;17.39;54.58;100083.72;2083779;28;20053;-53
2022/03/23 01:28:53;;;;;;;0.47;0.47;;;;;;;17.46;54.65;100075.03;2082711;28;20401;-52
2022/03/23 01:29:54;;;;;;;0.70;0.70;;;;;;;17.48;54.50;100079.22;2080704;28;20110;-55
2022/03/23 01:30:55;;;;;;;;;;;;;;;17.40;54.66;100079.19;2083377;28;20045;-52
2022/03/23 01:31:56;;;;;;;0.90;0.80;;;;;;;17.44;54.43;100075.22;2083363;28;20039;-55
2022/03/23 01:32:57;;;;;;;;;;;;;;;17.36;54.63;100076.00;2081638;28;20048;-54
2022/03/23 01:33:59;;;;;;;0.90;0.70;;;;;;;17.41;54.70;100073.69;2079779;28;20108;-52
2022/03/23 01:35:01;;;;;;;1.02;0.93;;;;;;;17.47;54.61;100074.00;2079524;28;20068;-53
2022/03/23 01:36:03;;;;;;;0.85;0.60;;;;;;;17.50;54.57;100073.72;2081966;28;20045;-56
2022/03/23 01:37:04;;;;;;;1.00;0.90;;;;;;;17.50;54.33;100066.50;2083242;28;20585;-53
2022/03/23 01:38:07;;;;;;;;;;;;;;;17.39;54.61;100072.16;2080491;28;20052;-54
2022/03/23 01:39:08;;;;;;;0.70;0.70;;;;;;;17.43;54.44;100076.19;2082344;28;19929;-55
2022/03/23 01:40:10;;;;;;;;;;;;;;;17.35;54.87;100079.66;2083168;28;20165;-55
2022/03/23 01:41:11;;;;;;;0.82;0.63;;;;;;;17.40;54.57;100071.97;2082381;28;20011;-52
2022/03/23 01:42:13;;;;;;;;;;;;;;;17.31;54.71;100070.28;2082505;28;20489;-53
2022/03/23 01:43:15;;;;;;;1.58;0.90;;;;;;;17.37;54.58;100066.94;2082980;28;20073;-53
2022/03/23 01:44:18;;;;;;;0.90;0.77;;;;;;;17.44;54.59;100069.84;2082918;28;20045;-55
2022/03/23 01:45:20;;;;;;;0.70;0.70;;;;;;;17.47;54.24;100071.34;2082142;28;20128;-53
2022/03/23 01:46:20;;;;;;;0.82;0.75;;;;;;;17.47;54.50;100065.97;2081038;28;20067;-52
2022/03/23 01:47:22;;;;;;;;;;;;;;;17.36;54.74;100064.44;2081216;28;20138;-52
2022/03/23 01:48:23;;;;;;;0.93;0.80;;;;;;;17.38;54.50;100065.09;2080872;28;19921;-54
2022/03/23 01:49:25;;;;;;;0.70;0.70;;;;;;;17.41;54.45;100067.44;2082101;28;20041;-54
2022/03/23 01:50:26;;;;;;;0.70;0.70;;;;;;;17.44;54.38;100067.16;2082781;28;20052;-52
2022/03/23 01:51:27;;;;;;;;;;;;;;;17.33;54.65;100062.09;2081528;28;20519;-51
2022/03/23 01:52:31;;;;;;;0.77;0.77;;;;;;;17.37;54.78;100063.44;2079173;28;19982;-50
2022/03/23 01:53:34;;;;;;;0.80;0.80;;;;;;;17.39;54.49;100066.78;2081326;28;20059;-53
2022/03/23 01:54:37;;;;;;;1.25;0.80;;;;;;;17.40;54.49;100057.75;2080310;28;20056;-54
2022/03/23 01:55:39;;;;;;;0.77;0.70;;;;;;;17.41;54.70;100062.09;2081070;28;20053;-52
2022/03/23 01:56:41;;;;;;;0.85;0.85;;;;;;;17.41;54.39;100062.97;2082001;28;21289;-52
2022/03/23 01:57:47;;;;;;;0.75;0.75;;;;;;;17.41;54.52;100056.72;2082840;28;20041;-55
2022/03/23 01:58:48;;;;;;;0.70;0.70;;;;;;;17.40;54.33;100071.16;2091392;28;20116;-56
2022/03/23 01:59:49;;;;;;;;;;;;;;;17.31;54.50;100067.59;2091393;28;20060;-53
2022/03/23 02:00:51;;;;;;;;;;;;;;;17.22;54.76;100065.00;2091152;28;19929;-55
2022/03/23 02:01:52;;;;;;;;;;;;;;;17.15;55.11;100060.28;2090493;28;19924;-52
2022/03/23 02:02:54;;;;;;;;;;;;;;;17.11;55.26;100064.31;2091302;28;20010;-53
2022/03/23 02:03:55;;;;;;;;;;;;;;;17.09;55.20;100066.28;2091201;28;19924;-53
2022/03/23 02:04:57;;;;;;;0.98;0.85;;;;;;;17.17;54.97;100055.63;2086088;28;19970;-54
2022/03/23 02:05:57;;;;;;;1.13;0.80;;;;;;;17.27;54.63;100060.00;2091580;28;20055;-53
2022/03/23 02:06:59;;;;;;;;;;;;;;;17.18;54.90;100065.34;2091481;28;20611;-51
2022/03/23 02:08:01;;;;;;;0.70;0.63;;;;;;;17.24;54.67;100061.19;2087894;28;19920;-54
2022/03/23 02:09:03;;;;;;;0.85;0.70;;;;;;;17.29;54.53;100064.22;2087833;28;20060;-52
2022/03/23 02:10:06;;;;;;;1.15;0.73;;;;;;;17.31;54.52;100056.88;2088738;28;20040;-55
2022/03/23 02:11:07;;;;;;;0.70;0.63;;;;;;;17.33;54.50;100059.41;2092664;28;20451;-54
2022/03/23 02:12:09;;;;;;;;;;;;;;;17.20;54.60;100055.31;2092379;28;20060;-54
2022/03/23 02:13:10;;;;;;;0.70;0.65;;;;;;;17.26;54.66;100061.03;2091040;28;20076;-54
2022/03/23 02:14:11;;;;;;;;;;;;;;;17.16;54.90;100055.78;2092145;28;21031;-54
2022/03/23 02:15:13;;;;;;;;;;;;;;;17.12;54.96;100067.81;2093589;28;19928;-56
2022/03/23 02:16:15;;;;;;;1.17;0.77;;;;;;;17.17;54.96;100060.97;2093439;28;19928;-53
2022/03/23 02:17:16;;;;;;;1.48;0.70;;;;;;;17.23;54.64;100054.16;2091047;28;20045;-52
2022/03/23 02:18:20;;;;;;;;;;;;;;;17.15;55.04;100059.47;2092123;28;20044;-53
2022/03/23 02:19:21;;;;;;;1.60;0.90;;;;;;;17.19;54.76;100059.00;2093536;28;19925;-52
2022/03/23 02:20:24;;;;;;;1.13;1.00;;;;;;;17.25;54.74;100056.69;2089578;28;20124;-52
2022/03/23 02:21:27;;;;;;;0.60;0.60;;;;;;;17.26;54.55;100052.97;2092567;28;20082;-55
2022/03/23 02:22:30;;;;;;;0.80;0.80;;;;;;;17.28;54.58;100048.31;2089164;28;20055;-53
2022/03/23 02:23:31;;;;;;;0.68;0.68;;;;;;;17.28;54.53;100053.66;2093354;28;20124;-53
2022/03/23 02:24:33;;;;;;;;;;;;;;;17.15;54.78;100048.75;2092410;28;20051;-53
2022/03/23 02:25:34;;;;;;;;;;;;;;;17.08;55.05;100059.28;2092401;28;20023;-56
2022/03/23 02:26:37;;;;;;;1.30;1.00;;;;;;;17.14;55.15;100050.59;2089803;28;20003;-53
2022/03/23 02:27:40;;;;;;;1.30;0.95;;;;;;;17.18;54.66;100053.78;2091736;28;20139;-54
2022/03/23 02:28:41;;;;;;;0.65;0.60;;;;;;;17.20;54.67;100049.94;2090930;28;20562;-56
2022/03/23 02:29:43;;;;;;;;;;;;;;;17.11;55.10;100058.13;2089832;28;20048;-56
2022/03/23 02:30:45;;;;;;;0.70;0.70;;;;;;;17.15;54.88;100054.09;2087087;28;19927;-55
2022/03/23 02:31:47;;;;;;;0.80;0.80;;;;;;;17.20;54.74;100055.31;2092936;28;20098;-53
2022/03/23 02:32:50;;;;;;;1.08;0.95;;;;;;;17.22;54.62;100049.78;2089253;28;20052;-61
2022/03/23 02:33:50;;;;;;;0.60;0.60;;;;;;;17.22;54.62;100059.66;2082143;28;20061;-55
2022/03/23 02:34:52;;;;;;;;;;;;;;;17.09;54.79;100052.91;2082405;28;20052;-53
2022/03/23 02:35:53;;;;;;;1.15;0.77;;;;;;;17.12;54.84;100055.25;2083177;28;19921;-54
2022/03/23 02:36:55;;;;;;;;;;;;;;;17.05;54.98;100050.69;2086710;28;20133;-52
2022/03/23 02:37:57;;;;;;;1.23;0.90;;;;;;;17.09;54.91;100049.38;2085591;28;19925;-52
2022/03/23 02:38:59;;;;;;;1.67;1.00;;;;;;;17.13;54.79;100054.28;2085566;28;20049;-57
2022/03/23 02:40:03;;;;;;;1.60;1.02;;;;;;;17.13;54.67;100050.72;2084840;28;20070;-50
2022/03/23 02:41:05;;;;;;;0.50;0.50;;;;;;;17.16;54.76;100053.94;2082782;28;20048;-52
2022/03/23 02:42:06;;;;;;;0.90;0.70;;;;;;;17.17;54.66;100047.56;2086093;28;20044;-55
2022/03/23 02:43:08;;;;;;;0.77;0.77;;;;;;;17.17;54.81;100044.06;2084868;28;20056;-53
2022/03/23 02:44:12;;;;;;;1.13;0.98;;;;;;;17.16;54.68;100048.59;2082227;28;20055;-53
2022/03/23 02:45:15;;;;;;;0.90;0.70;;;;;;;17.15;54.55;100041.53;2083328;28;20072;-54
2022/03/23 02:46:17;;;;;;;1.20;0.82;;;;;;;17.15;54.61;100048.75;2083532;28;20069;-53
2022/03/23 02:47:20;;;;;;;0.70;0.70;;;;;;;17.15;54.76;100046.06;2081362;28;20085;-53
2022/03/23 02:48:21;;;;;;;0.63;0.63;;;;;;;17.15;54.77;100049.56;2080951;28;20774;-52
2022/03/23 02:49:22;;;;;;;;;;;;;;;17.04;54.91;100049.00;2085538;28;20075;-55
2022/03/23 02:50:24;;;;;;;;;;;;;;;16.94;55.07;100039.25;2082807;28;20513;-54
2022/03/23 02:51:24;;;;;;;;;;;;;;;16.91;55.40;100044.06;2085401;28;19947;-54
2022/03/23 02:52:27;;;;;;;0.75;0.70;;;;;;;16.99;55.18;100041.44;2082610;28;19931;-53
2022/03/23 03:02:19;;;;;;;1.80;0.80;;;;;;;17.02;54.83;100043.81;2088605;28;20041;-56
2022/03/23 03:03:20;;;;;;;0.95;0.85;;;;;;;17.05;55.07;100037.28;2091870;28;20171;-52
2022/03/23 03:04:21;;;;;;;;;;;;;;;16.93;55.10;100042.91;2090450;28;21002;-55
2022/03/23 03:05:23;;;;;;;1.10;1.00;;;;;;;16.98;55.03;100043.28;2091006;28;19920;-55
2022/03/23 03:06:24;;;;;;;0.80;0.68;;;;;;;17.01;54.69;100044.81;2090830;28;20056;-54
2022/03/23 03:07:26;;;;;;;;;;;;;;;16.90;55.09;100037.88;2091705;28;20051;-51
2022/03/23 03:08:45;;;;;;;0.65;0.65;;;;;;;16.95;55.19;100046.28;2088639;28;20442;-52
2022/03/23 03:09:48;;;;;;;1.13;0.80;;;;;;;16.98;54.94;100040.59;2090855;28;20127;-53
2022/03/23 03:10:49;;;;;;;1.15;0.88;;;;;;;17.01;54.85;100050.16;2091069;28;20057;-54
2022/03/23 03:11:50;;;;;;;;;;;;;;;16.90;54.97;100045.06;2091595;28;20072;-54
2022/03/23 03:12:52;;;;;;;;;;;;;;;16.83;55.35;100044.03;2083097;28;19955;-52
2022/03/23 03:13:53;;;;;;;0.90;0.90;;;;;;;16.90;55.16;100039.72;2085294;28;19928;-51
2022/03/23 03:14:54;;;;;;;0.60;0.60;;;;;;;16.94;54.91;100033.91;2087474;28;20072;-51
2022/03/23 03:16:00;;;;;;;;;;;;;;;16.85;55.36;100042.84;2083271;28;20052;-53
2022/03/23 03:17:01;;;;;;;1.02;0.93;;;;;;;16.93;55.18;100047.44;2090736;28;19931;-52
2022/03/23 03:18:02;;;;;;;;;;;;;;;16.84;55.41;100043.88;2091712;28;20047;-53
2022/03/23 03:19:05;;;;;;;1.58;0.82;;;;;;;16.91;54.99;100044.06;2091943;28;20441;-52
2022/03/23 03:20:08;;;;;;;1.02;0.85;;;;;;;16.93;55.24;100042.91;2093535;28;20080;-52
2022/03/23 03:21:11;;;;;;;0.77;0.65;;;;;;;16.96;54.90;100049.78;2092810;28;20060;-53
2022/03/23 03:22:12;;;;;;;0.70;0.70;;;;;;;16.99;54.84;100041.44;2091000;28;20066;-55
2022/03/23 03:23:13;;;;;;;0.88;0.60;;;;;;;16.97;54.85;100044.28;2092565;28;20055;-53
2022/03/23 03:24:15;;;;;;;;;;;;;;;16.88;54.95;100041.72;2093661;28;20051;-51
2022/03/23 03:25:17;;;;;;;1.23;0.85;;;;;;;16.91;55.02;100049.44;2091024;28;20674;-53
2022/03/23 03:26:19;;;;;;;1.13;0.70;;;;;;;16.93;54.96;100042.91;2093353;28;20037;-52
2022/03/23 03:27:19;;;;;;;0.65;0.60;;;;;;;16.97;54.94;100043.47;2093233;28;20055;-53
2022/03/23 03:28:21;;;;;;;;;;;;;;;16.86;55.17;100038.38;2094170;28;20495;-52
2022/03/23 03:29:23;;;;;;;1.08;0.80;;;;;;;16.89;55.17;100038.88;2092844;28;19928;-54
2022/03/23 03:30:25;;;;;;;1.40;0.70;;;;;;;16.90;55.19;100037.03;2091498;28;20049;-55
2022/03/23 03:31:25;;;;;;;1.33;1.23;;;;;;;16.93;54.85;100039.41;2093012;28;20044;-50
2022/03/23 03:32:27;;;;;;;;;;;;;;;16.79;55.52;100035.47;2094093;28;20176;-53
2022/03/23 03:33:28;;;;;;;1.13;0.93;;;;;;;16.87;55.32;100037.34;2093376;28;19987;-53
2022/03/23 03:34:29;;;;;;;;;;;;;;;16.73;55.43;100036.91;2079043;28;20049;-53
2022/03/23 03:35:30;;;;;;;0.77;0.68;;;;;;;16.79;55.39;100035.47;2090393;28;20019;-53
2022/03/23 03:36:32;;;;;;;;;;;;;;;16.69;55.32;100035.53;2087595;28;20044;-53
2022/03/23 03:37:33;;;;;;;1.38;1.02;;;;;;;16.78;55.38;100033.78;2091512;28;19931;-53
2022/03/23 03:38:37;;;;;;;1.85;0.82;;;;;;;16.83;55.19;100036.00;2086982;28;20053;-52
2022/03/23 03:39:37;;;;;;;0.60;0.60;;;;;;;16.83;55.28;100036.84;2089359;28;20136;-54
2022/03/23 03:40:40;;;;;;;;;;;;;;;16.75;55.27;100042.94;2088342;28;20048;-50
2022/03/23 03:41:42;;;;;;;1.67;0.80;;;;;;;16.82;55.14;100039.66;2089253;28;19920;-53
2022/03/23 03:42:43;;;;;;;1.40;0.77;;;;;;;16.84;54.93;100029.63;2090091;28;20845;-53
2022/03/23 03:43:45;;;;;;;;;;;;;;;16.74;55.51;100041.28;2090171;28;20060;-53
2022/03/23 03:44:46;;;;;;;1.33;1.13;;;;;;;16.79;55.06;100031.94;2088897;28;19927;-53
2022/03/23 03:45:47;;;;;;;;;;;;;;;16.68;55.18;100039.19;2085292;28;20059;-53
2022/03/23 03:46:49;;;;;;;1.33;0.70;;;;;;;16.74;55.33;100043.97;2089559;28;19925;-52
2022/03/23 03:47:50;;;;;;;0.75;0.75;;;;;;;16.80;55.13;100041.66;2091403;28;20727;-53
2022/03/23 03:48:52;;;;;;;;;;;;;;;16.72;55.22;100040.59;2092094;28;20052;-52
2022/03/23 03:49:53;;;;;;;0.70;0.68;;;;;;;16.78;55.36;100044.50;2088155;28;19970;-53
2022/03/23 03:50:54;;;;;;;;;;;;;;;16.68;55.50;100038.38;2092747;28;20577;-52
2022/03/23 03:51:55;;;;;;;;;;;;;;;16.63;55.49;100046.91;2088222;28;19924;-53
2022/03/23 03:52:57;;;;;;;0.70;0.70;;;;;;;16.70;55.43;100047.94;2090960;28;20626;-51
2022/03/23 03:53:57;;;;;;;1.13;1.00;;;;;;;16.74;55.29;100046.63;2087003;28;20072;-53
2022/03/23 03:54:59;;;;;;;;;;;;;;;16.69;55.43;100045.44;2088201;28;20876;-52
2022/03/23 03:56:02;;;;;;;;;;;;;;;16.61;55.69;100035.47;2087085;28;20019;-52
2022/03/23 03:57:03;;;;;;;0.85;0.75;;;;;;;16.68;55.39;100039.19;2090961;28;20011;-52
2022/03/23 03:58:06;;;;;;;1.33;1.17;;;;;;;16.74;55.33;100035.91;2087244;28;20592;-52
2022/03/23 03:59:07;;;;;;;0.93;0.70;;;;;;;16.75;55.17;100040.25;2088840;28;20051;-50
2022/03/23 04:00:09;;;;;;;;;;;;;;;16.67;55.18;100042.06;2089561;28;20130;-54
2022/03/23 04:01:10;;;;;;;1.17;1.08;;;;;;;16.71;55.29;100048.75;2090066;28;19929;-52
2022/03/23 04:02:14;;;;;;;0.77;0.68;;;;;;;16.75;55.16;100051.00;2088621;28;20127;-52
2022/03/23 04:03:14;;;;;;;0.80;0.52;;;;;;;16.78;55.25;100051.72;2091418;28;20089;-51
2022/03/23 04:04:16;;;;;;;;;;;;;;;16.67;55.42;100048.25;2088180;28;20097;-53
2022/03/23 04:05:17;;;;;;;;;;;;;;;16.58;55.41;100046.50;2086291;28;19928;-56
2022/03/23 04:06:19;;;;;;;1.50;0.95;;;;;;;16.65;55.57;100050.22;2086493;28;19928;-52
2022/03/23 04:07:19;;;;;;;0.57;0.57;;;;;;;16.71;55.21;100048.75;2090917;28;20075;-52
2022/03/23 04:08:21;;;;;;;;;;;;;;;16.64;55.47;100055.75;2087512;28;20052;-53
2022/03/23 04:09:22;;;;;;;0.95;0.90;;;;;;;16.69;55.44;100054.28;2085969;28;19974;-53
2022/03/23 04:10:23;;;;;;;;;;;;;;;16.60;55.38;100057.06;2088580;28;20037;-54
2022/03/23 04:11:28;;;;;;;1.48;0.90;;;;;;;16.69;55.29;100053.47;2090402;28;19928;-53
2022/03/23 04:12:28;;;;;;;1.42;0.90;;;;;;;16.70;55.16;100050.59;2087489;28;20512;-50
2022/03/23 04:13:30;;;;;;;;;;;;;;;16.62;55.56;100053.22;2087746;28;20052;-53
2022/03/23 04:14:31;;;;;;;1.15;1.00;;;;;;;16.66;55.36;100054.63;2087152;28;19928;-53
2022/03/23 04:15:32;;;;;;;;;;;;;;;16.57;55.33;100052.00;2089890;28;20704;-53
2022/03/23 04:16:33;;;;;;;1.33;1.23;;;;;;;16.61;55.38;100050.72;2088910;28;19936;-54
2022/03/23 04:17:35;;;;;;;;;;;;;;;16.54;55.50;100048.63;2088605;28;20094;-53
2022/03/23 04:18:36;;;;;;;1.35;0.70;;;;;;;16.61;55.53;100053.41;2088841;28;20460;-53
2022/03/23 04:19:37;;;;;;;1.45;0.95;;;;;;;16.67;55.19;100050.94;2089308;28;20663;-51
2022/03/23 04:20:39;;;;;;;;;;;;;;;16.59;55.47;100052.72;2084758;28;20083;-52
2022/03/23 04:21:40;;;;;;;1.13;0.80;;;;;;;16.63;55.30;100056.75;2090053;28;19920;-53
2022/03/23 04:22:41;;;;;;;;;;;;;;;16.55;55.54;100049.50;2086589;28;20070;-53
2022/03/23 04:23:42;;;;;;;0.90;0.77;;;;;;;16.60;55.18;100052.53;2087591;28;19932;-53
2022/03/23 04:24:44;;;;;;;;;;;;;;;16.50;55.62;100051.81;2088792;28;20049;-53
2022/03/23 04:25:45;;;;;;;1.00;0.90;;;;;;;16.56;55.39;100050.34;2086666;28;19925;-54
2022/03/23 04:26:49;;;;;;;0.80;0.73;;;;;;;16.60;55.12;100046.34;2088254;28;20083;-52
2022/03/23 04:27:51;;;;;;;0.75;0.65;;;;;;;16.61;55.09;100053.41;2088651;28;20115;-52
2022/03/23 04:28:53;;;;;;;3.17;0.60;;;;;;;16.65;55.11;100047.56;2091464;28;20098;-51
2022/03/23 04:29:54;;;;;;;0.82;0.57;;;;;;;16.64;55.11;100048.56;2086700;28;20506;-54
2022/03/23 04:30:56;;;;;;;;;;;;;;;16.56;55.36;100056.53;2086409;28;20040;-53
2022/03/23 04:31:57;;;;;;;1.83;1.00;;;;;;;16.62;55.05;100052.41;2090749;28;19924;-54
2022/03/23 04:32:59;;;;;;;;;;;;;;;16.51;55.38;100057.00;2087824;28;20128;-56
2022/03/23 04:34:00;;;;;;;1.63;0.80;;;;;;;16.54;55.45;100048.63;2086253;28;19954;-52
2022/03/23 04:35:02;;;;;;;;;;;;;;;16.46;55.58;100048.56;2091500;28;20110;-49
2022/03/23 04:36:03;;;;;;;;;;;;;;;16.43;55.71;100053.41;2086308;28;19929;-52
2022/03/23 04:37:05;;;;;;;0.70;0.70;;;;;;;16.50;55.39;100052.66;2088147;28;20672;-53
2022/03/23 04:38:05;;;;;;;1.23;0.80;;;;;;;16.50;55.27;100047.28;2086456;28;20510;-52
2022/03/23 04:39:07;;;;;;;;;;;;;;;16.45;55.48;100052.25;2085856;28;20041;-53
2022/03/23 04:40:09;;;;;;;1.25;0.68;;;;;;;16.52;55.32;100057.84;2083924;28;20519;-52
2022/03/23 04:41:11;;;;;;;0.80;0.75;;;;;;;16.55;55.19;100046.81;2088819;28;20074;-51
2022/03/23 04:42:13;;;;;;;1.17;0.70;;;;;;;16.56;55.07;100045.81;2089985;28;20494;-53
2022/03/23 04:43:16;;;;;;;0.40;0.40;;;;;;;16.60;55.07;100051.69;2090663;28;20045;-55
2022/03/23 04:44:16;;;;;;;0.75;0.73;;;;;;;16.61;55.11;100042.69;2087388;28;20363;-52
2022/03/23 04:45:19;;;;;;;;;;;;;;;16.50;55.17;100049.13;2088195;28;20132;-53
2022/03/23 04:46:20;;;;;;;1.17;0.90;;;;;;;16.56;54.98;100055.69;2090992;28;19920;-51
2022/03/23 04:47:21;;;;;;;1.15;0.95;;;;;;;16.58;55.25;100053.72;2089135;28;20059;-53
2022/03/23 04:48:23;;;;;;;;;;;;;;;16.46;55.30;100050.41;2090974;28;20123;-53
2022/03/23 04:49:24;;;;;;;1.08;0.95;;;;;;;16.50;55.29;100054.47;2088105;28;19926;-50
2022/03/23 04:50:25;;;;;;;;;;;;;;;16.41;55.29;100053.59;2077732;28;20048;-55
2022/03/23 04:51:26;;;;;;;;;;;;;;;16.37;55.77;100054.03;2085218;28;19928;-56
2022/03/23 04:52:29;;;;;;;0.83;0.77;;;;;;;16.46;55.53;100055.78;2089129;28;19963;-54
2022/03/23 04:53:31;;;;;;;1.85;0.70;;;;;;;16.49;55.53;100059.00;2087136;28;21122;-54
2022/03/23 04:54:32;;;;;;;0.63;0.63;;;;;;;16.56;55.19;100056.53;2081134;28;23047;-53
2022/03/23 04:55:34;;;;;;;;;;;;;;;16.48;55.20;100053.78;2098497;28;20056;-54
2022/03/23 04:56:34;;;;;;;0.95;0.90;;;;;;;16.51;55.38;100053.47;2082190;28;20765;-52
2022/03/23 04:57:38;;;;;;;;;;;;;;;16.41;55.18;100061.63;2090731;28;20052;-53
2022/03/23 04:58:42;;;;;;;1.15;0.75;;;;;;;16.47;55.35;100054.81;2087375;28;19924;-53
2022/03/23 04:59:44;;;;;;;0.90;0.90;;;;;;;16.51;55.15;100059.66;2089135;28;20590;-54
2022/03/23 05:00:48;;;;;;;0.93;0.70;;;;;;;16.53;55.22;100059.53;2088788;28;20499;-54
2022/03/23 05:01:49;;;;;;;0.80;0.80;;;;;;;16.54;55.17;100061.19;2088042;28;20074;-52
2022/03/23 05:02:51;;;;;;;;;;;;;;;16.44;55.24;100057.78;2089235;28;20059;-56
2022/03/23 05:03:52;;;;;;;1.25;0.65;;;;;;;16.48;55.33;100061.81;2085802;28;19932;-53
2022/03/23 05:04:54;;;;;;;1.27;1.00;;;;;;;16.50;55.25;100065.19;2086345;28;22334;-51
2022/03/23 05:05:55;;;;;;;0.88;0.70;;;;;;;16.53;55.13;100062.22;2085862;28;20053;-53